Time;durP1;ratioP1;P1;durP2;ratioP2;P2;SDS_P1;SDS_P2;PMS_P1;PMS_P2;Temp;Humidity;BMP_temperature;BMP_pressure;BME280_temperature;BME280_humidity;BME280_pressure;Samples;Min_cycle;Max_cycle;Signal;HPM_P1;HPM_P2
2022/07/10 00:02:11;;;;;;;;;;;15.10;99.90;;;;;;4999572;28;19924;-71
2022/07/10 00:04:37;;;;;;;;;;;15.10;99.90;;;;;;5000055;28;20366;-71
2022/07/10 00:07:03;;;;;;;;;;;15.00;99.90;;;;;;5004251;28;19926;-70
2022/07/10 00:09:29;;;;;;;;;;;15.00;99.90;;;;;;5006555;28;19918;-71
2022/07/10 00:11:54;;;;;;;;;;;15.00;99.90;;;;;;5005208;28;20044;-71
2022/07/10 00:14:20;;;;;;;;;;;14.90;99.90;;;;;;5010931;28;20061;-70
2022/07/10 00:16:46;;;;;;;;;;;14.90;99.90;;;;;;5004271;28;19917;-71
2022/07/10 00:19:11;;;;;;;;;;;14.90;99.90;;;;;;5001551;28;19921;-71
2022/07/10 00:21:37;;;;;;;;;;;14.90;99.90;;;;;;4983755;28;19917;-71
2022/07/10 00:24:03;;;;;;;;;;;14.80;99.90;;;;;;4983713;28;19944;-70
2022/07/10 00:26:29;;;;;;;;;;;14.80;99.90;;;;;;4987445;28;19918;-71
2022/07/10 00:28:54;;;;;;;;;;;14.80;99.90;;;;;;5001667;28;20019;-71
2022/07/10 00:31:20;;;;;;;;;;;14.80;99.90;;;;;;5003357;28;20378;-71
2022/07/10 00:33:46;;;;;;;;;;;14.70;99.90;;;;;;5004488;28;20000;-70
2022/07/10 00:36:11;;;;;;;;;;;14.70;99.90;;;;;;5004522;28;19968;-71
2022/07/10 00:38:37;;;;;;;;;;;14.70;99.90;;;;;;4995099;28;19917;-71
2022/07/10 00:41:02;;;;;;;;;;;14.70;99.90;;;;;;4984195;28;19991;-70
2022/07/10 00:43:28;;;;;;;;;;;14.70;99.90;;;;;;5004923;28;20000;-70
2022/07/10 00:45:54;;;;;;;;;;;14.70;99.90;;;;;;5006728;28;20381;-71
2022/07/10 00:48:19;;;;;;;;;;;14.70;99.90;;;;;;5005475;28;19917;-71
2022/07/10 00:50:45;;;;;;;;;;;14.70;99.90;;;;;;5005618;28;19940;-71
2022/07/10 00:53:12;;;;;;;;;;;14.70;99.90;;;;;;5007932;28;19982;-71
2022/07/10 00:55:38;;;;;;;;;;;14.70;99.90;;;;;;5005545;28;20275;-71
2022/07/10 00:58:06;;;;;;;;;;;14.70;99.90;;;;;;5007986;28;19996;-70
2022/07/10 01:00:32;;;;;;;;;;;14.70;99.90;;;;;;4987187;28;20148;-70
2022/07/10 01:02:57;;;;;;;;;;;14.70;99.90;;;;;;5007741;28;19916;-71
2022/07/10 01:05:23;;;;;;;;;;;14.70;99.90;;;;;;5030746;28;19928;-71
2022/07/10 01:07:48;;;;;;;;;;;14.80;99.90;;;;;;5009800;28;19997;-70
2022/07/10 01:10:14;;;;;;;;;;;14.70;99.90;;;;;;5002863;28;19917;-71
2022/07/10 01:12:40;;;;;;;;;;;14.70;99.90;;;;;;5005360;28;19917;-71
2022/07/10 01:15:06;;;;;;;;;;;14.80;99.90;;;;;;5023352;28;19993;-71
2022/07/10 01:17:32;;;;;;;;;;;14.80;99.90;;;;;;5000735;28;20407;-70
2022/07/10 01:19:58;;;;;;;;;;;14.80;99.90;;;;;;4997540;28;19951;-70
2022/07/10 01:22:23;;;;;;;;;;;14.80;99.90;;;;;;4999041;28;19969;-70
2022/07/10 01:24:49;;;;;;;;;;;14.80;99.90;;;;;;5004353;28;19948;-70
2022/07/10 01:27:15;;;;;;;;;;;14.80;99.90;;;;;;4999910;28;19939;-70
2022/07/10 01:29:41;;;;;;;;;;;14.70;99.90;;;;;;5001533;28;19917;-70
2022/07/10 01:32:06;;;;;;;;;;;14.70;99.90;;;;;;5014362;28;20004;-70
2022/07/10 01:34:32;;;;;;;;;;;14.70;99.90;;;;;;5018093;28;19976;-72
2022/07/10 01:36:57;;;;;;;;;;;14.80;99.90;;;;;;5001808;28;20260;-72
2022/07/10 01:39:23;;;;;;;;;;;14.80;99.90;;;;;;5004180;28;20020;-72
2022/07/10 01:41:48;;;;;;;;;;;14.70;99.90;;;;;;5005538;28;19924;-72
2022/07/10 01:44:14;;;;;;;;;;;14.80;99.90;;;;;;4999997;28;20302;-72
2022/07/10 01:46:46;;;;;;;;;;;14.80;99.90;;;;;;4997151;28;19918;-72
2022/07/10 01:49:12;;;;;;;;;;;14.80;99.90;;;;;;5006343;28;19924;-72
2022/07/10 01:51:37;;;;;;;;;;;14.80;99.90;;;;;;5009304;28;20008;-72
2022/07/10 01:54:03;;;;;;;;;;;14.80;99.90;;;;;;5013133;28;19925;-72
2022/07/10 01:56:28;;;;;;;;;;;14.80;99.90;;;;;;4994209;28;19925;-72
2022/07/10 01:58:54;;;;;;;;;;;14.70;99.90;;;;;;4989471;28;19926;-72
2022/07/10 02:01:19;;;;;;;;;;;14.70;99.90;;;;;;5000103;28;19932;-72
2022/07/10 02:06:29;;;;;;;;;;;14.60;99.90;;;;;;4996057;28;19921;-70
2022/07/10 02:08:54;;;;;;;;;;;14.70;99.90;;;;;;5004117;28;19924;-71
2022/07/10 02:11:20;;;;;;;;;;;14.60;99.90;;;;;;5010580;28;19964;-70
2022/07/10 02:13:46;;;;;;;;;;;14.60;99.90;;;;;;5006061;28;20381;-71
2022/07/10 02:16:11;;;;;;;;;;;14.50;99.90;;;;;;5004504;28;19917;-70
2022/07/10 02:18:38;;;;;;;;;;;14.60;99.90;;;;;;5009603;28;19975;-71
2022/07/10 02:21:04;;;;;;;;;;;14.60;99.90;;;;;;4986281;28;19917;-70
2022/07/10 02:23:30;;;;;;;;;;;14.50;99.90;;;;;;5006998;28;20008;-71
2022/07/10 02:25:55;;;;;;;;;;;14.60;99.90;;;;;;5002154;28;20353;-70
2022/07/10 02:28:21;;;;;;;;;;;14.50;99.90;;;;;;4990392;28;20119;-71
2022/07/10 02:30:46;;;;;;;;;;;14.50;99.90;;;;;;5008447;28;19917;-71
2022/07/10 02:33:12;;;;;;;;;;;14.50;99.90;;;;;;5022536;28;20447;-71
2022/07/10 02:35:38;;;;;;;;;;;14.50;99.90;;;;;;5004587;28;20204;-70
2022/07/10 02:38:03;;;;;;;;;;;14.50;99.90;;;;;;4987489;28;19987;-72
2022/07/10 02:40:29;;;;;;;;;;;14.60;99.90;;;;;;4997177;28;20401;-71
2022/07/10 02:42:54;;;;;;;;;;;14.60;99.90;;;;;;5009906;28;20294;-71
2022/07/10 02:45:20;;;;;;;;;;;14.60;99.90;;;;;;4997292;28;19961;-70
2022/07/10 02:47:45;;;;;;;;;;;14.60;99.90;;;;;;4997022;28;20439;-70
2022/07/10 02:50:11;;;;;;;;;;;14.60;99.90;;;;;;4985180;28;19921;-70
2022/07/10 02:52:36;;;;;;;;;;;14.60;99.90;;;;;;5003635;28;20108;-70
2022/07/10 02:55:02;;;;;;;;;;;14.70;99.90;;;;;;5006938;28;19917;-70
2022/07/10 02:57:28;;;;;;;;;;;14.70;99.90;;;;;;5002463;28;20360;-70
2022/07/10 02:59:53;;;;;;;;;;;14.70;99.90;;;;;;4992025;28;19928;-70
2022/07/10 03:02:19;;;;;;;;;;;14.70;99.90;;;;;;4997832;28;19917;-70
2022/07/10 03:04:44;;;;;;;;;;;14.70;99.90;;;;;;5009078;28;19975;-70
2022/07/10 03:07:10;;;;;;;;;;;14.70;99.90;;;;;;5009133;28;20401;-70
2022/07/10 03:09:35;;;;;;;;;;;14.80;99.90;;;;;;4996389;28;19921;-70
2022/07/10 03:12:01;;;;;;;;;;;14.80;99.90;;;;;;5007239;28;19964;-74
2022/07/10 03:14:26;;;;;;;;;;;14.80;99.90;;;;;;5006514;28;19917;-75
2022/07/10 03:16:52;;;;;;;;;;;14.80;99.90;;;;;;5002270;28;19924;-75
2022/07/10 03:19:17;;;;;;;;;;;14.90;99.90;;;;;;5006445;28;19979;-71
2022/07/10 03:21:44;;;;;;;;;;;14.90;99.90;;;;;;5007957;28;19971;-71
2022/07/10 03:24:10;;;;;;;;;;;14.90;99.90;;;;;;4992705;28;20363;-71
2022/07/10 03:26:35;;;;;;;;;;;14.90;99.90;;;;;;4999762;28;19928;-71
2022/07/10 03:29:00;;;;;;;;;;;15.00;99.90;;;;;;5013368;28;19917;-71
2022/07/10 03:31:26;;;;;;;;;;;15.00;99.90;;;;;;4998250;28;19963;-72
2022/07/10 03:33:52;;;;;;;;;;;15.00;99.90;;;;;;4996388;28;20370;-71
2022/07/10 03:36:18;;;;;;;;;;;15.00;99.90;;;;;;4990841;28;19924;-72
2022/07/10 03:38:45;;;;;;;;;;;15.00;99.90;;;;;;5002414;28;19918;-72
2022/07/10 03:41:11;;;;;;;;;;;15.00;99.90;;;;;;5003617;28;19945;-72
2022/07/10 03:43:36;;;;;;;;;;;15.00;99.90;;;;;;5005692;28;20321;-71
2022/07/10 03:46:02;;;;;;;;;;;15.00;99.90;;;;;;4989722;28;19925;-71
2022/07/10 03:48:28;;;;;;;;;;;15.00;99.90;;;;;;5006378;28;20414;-71
2022/07/10 03:50:53;;;;;;;;;;;15.10;99.90;;;;;;5004579;28;19924;-71
2022/07/10 03:53:19;;;;;;;;;;;15.00;99.90;;;;;;5008095;28;20056;-71
2022/07/10 03:55:45;;;;;;;;;;;15.10;99.90;;;;;;5005292;28;19928;-71
2022/07/10 03:58:10;;;;;;;;;;;15.10;99.90;;;;;;5008020;28;19917;-71
2022/07/10 04:00:38;;;;;;;;;;;15.10;99.90;;;;;;4998051;28;20303;-71
2022/07/10 04:03:04;;;;;;;;;;;15.10;99.90;;;;;;5005402;28;19936;-71
2022/07/10 04:05:30;;;;;;;;;;;15.10;99.90;;;;;;4989910;28;19925;-71
2022/07/10 04:07:56;;;;;;;;;;;15.10;99.90;;;;;;4988791;28;20004;-71
2022/07/10 04:10:22;;;;;;;;;;;15.10;99.90;;;;;;5012413;28;19921;-71
2022/07/10 04:12:48;;;;;;;;;;;15.10;99.90;;;;;;4996264;28;20578;-71
2022/07/10 04:15:14;;;;;;;;;;;15.00;99.90;;;;;;5003652;28;19922;-71
2022/07/10 04:20:11;;;;;;;;;;;15.10;99.90;;;;;;5009117;28;20024;-70
2022/07/10 04:22:36;;;;;;;;;;;15.00;99.90;;;;;;5006806;28;19929;-70
2022/07/10 04:25:03;;;;;;;;;;;15.10;99.90;;;;;;5023621;28;19971;-70
2022/07/10 04:27:28;;;;;;;;;;;15.10;99.90;;;;;;5011687;28;19996;-70
2022/07/10 04:29:54;;;;;;;;;;;15.10;99.90;;;;;;5006128;28;19949;-70
2022/07/10 04:32:19;;;;;;;;;;;15.10;99.90;;;;;;5004144;28;19972;-70
2022/07/10 04:34:45;;;;;;;;;;;15.10;99.90;;;;;;5040266;28;20031;-70
2022/07/10 04:37:10;;;;;;;;;;;15.10;99.90;;;;;;5009333;28;19980;-70
2022/07/10 04:39:37;;;;;;;;;;;15.10;99.90;;;;;;5009006;28;19918;-70
2022/07/10 04:42:03;;;;;;;;;;;15.10;99.90;;;;;;5005789;28;20336;-70
2022/07/10 04:44:29;;;;;;;;;;;15.10;99.90;;;;;;5008097;28;20278;-69
2022/07/10 04:46:54;;;;;;;;;;;15.10;99.90;;;;;;5009148;28;19940;-70
2022/07/10 04:49:20;;;;;;;;;;;15.10;99.90;;;;;;5006070;28;20370;-70
2022/07/10 04:51:45;;;;;;;;;;;15.10;99.90;;;;;;5010649;28;19928;-70
2022/07/10 04:54:11;;;;;;;;;;;15.10;99.90;;;;;;5007232;28;19917;-70
2022/07/10 04:56:36;;;;;;;;;;;15.10;99.90;;;;;;5007316;28;19925;-70
2022/07/10 04:59:02;;;;;;;;;;;15.10;99.90;;;;;;5008155;28;20035;-70
2022/07/10 05:01:27;;;;;;;;;;;15.10;99.90;;;;;;5006530;28;19921;-70
2022/07/10 05:03:53;;;;;;;;;;;15.10;99.90;;;;;;5008879;28;19918;-71
2022/07/10 05:06:18;;;;;;;;;;;15.10;99.90;;;;;;4999560;28;19961;-70
2022/07/10 05:08:44;;;;;;;;;;;15.20;99.90;;;;;;5006617;28;19955;-70
2022/07/10 05:11:10;;;;;;;;;;;15.20;99.90;;;;;;5008467;28;19917;-71
2022/07/10 05:13:36;;;;;;;;;;;15.10;99.90;;;;;;5005087;28;19921;-71
2022/07/10 05:16:03;;;;;;;;;;;15.10;99.90;;;;;;5010093;28;20015;-70
2022/07/10 05:18:28;;;;;;;;;;;15.10;99.90;;;;;;5018795;28;20024;-70
2022/07/10 05:20:54;;;;;;;;;;;15.20;99.90;;;;;;5029621;28;20362;-70
2022/07/10 05:23:19;;;;;;;;;;;15.20;99.90;;;;;;5024509;28;20077;-70
2022/07/10 05:25:45;;;;;;;;;;;15.20;99.90;;;;;;5021466;28;20444;-70
2022/07/10 05:28:12;;;;;;;;;;;15.20;99.90;;;;;;5010394;28;20369;-70
2022/07/10 05:30:38;;;;;;;;;;;15.30;99.90;;;;;;5022910;28;20000;-71
2022/07/10 05:33:03;;;;;;;;;;;15.30;99.90;;;;;;5017936;28;20092;-71
2022/07/10 05:35:29;;;;;;;;;;;15.30;99.90;;;;;;5006673;28;19917;-70
2022/07/10 05:37:54;;;;;;;;;;;15.30;99.90;;;;;;5026901;28;20035;-70
2022/07/10 05:40:20;;;;;;;;;;;15.40;99.90;;;;;;5031321;28;19917;-71
2022/07/10 05:42:45;;;;;;;;;;;15.40;99.90;;;;;;5041998;28;19971;-71
2022/07/10 05:45:11;;;;;;;;;;;15.50;99.90;;;;;;5035104;28;20011;-71
2022/07/10 05:47:37;;;;;;;;;;;15.50;99.90;;;;;;5053419;28;19940;-71
2022/07/10 05:50:02;;;;;;;;;;;15.50;99.90;;;;;;5020563;28;20250;-70
2022/07/10 05:52:28;;;;;;;;;;;15.50;99.90;;;;;;5013653;28;20084;-70
2022/07/10 05:54:55;;;;;;;;;;;15.50;99.90;;;;;;5041493;28;19921;-70
2022/07/10 05:57:20;;;;;;;;;;;15.50;99.90;;;;;;5012002;28;19971;-70
2022/07/10 05:59:46;;;;;;;;;;;15.50;99.90;;;;;;5022158;28;19921;-70
2022/07/10 06:02:11;;;;;;;;;;;15.50;99.90;;;;;;5016140;28;19968;-71
2022/07/10 06:04:37;;;;;;;;;;;15.50;99.90;;;;;;5039759;28;19921;-70
2022/07/10 06:07:02;;;;;;;;;;;15.50;99.90;;;;;;5035065;28;19921;-71
2022/07/10 06:09:28;;;;;;;;;;;15.50;99.90;;;;;;5038659;28;19924;-70
2022/07/10 06:11:54;;;;;;;;;;;15.50;99.90;;;;;;5013065;28;19917;-70
2022/07/10 06:14:19;;;;;;;;;;;15.50;99.90;;;;;;5044243;28;20365;-71
2022/07/10 06:16:45;;;;;;;;;;;15.50;99.90;;;;;;5024066;28;19921;-71
2022/07/10 06:19:10;;;;;;;;;;;15.50;99.90;;;;;;5028908;28;20428;-70
2022/07/10 06:21:36;;;;;;;;;;;15.50;99.90;;;;;;5051278;28;19924;-71
2022/07/10 06:24:01;;;;;;;;;;;15.50;99.90;;;;;;5037391;28;19917;-71
2022/07/10 06:26:27;;;;;;;;;;;15.50;99.90;;;;;;4989528;28;20301;-71
2022/07/10 06:28:52;;;;;;;;;;;15.50;99.90;;;;;;5024769;28;19917;-71
2022/07/10 06:31:18;;;;;;;;;;;15.40;99.90;;;;;;5006054;28;19917;-71
2022/07/10 06:33:43;;;;;;;;;;;15.40;99.90;;;;;;5022135;28;19986;-71
2022/07/10 06:36:09;;;;;;;;;;;15.40;99.90;;;;;;5041692;28;19940;-71
2022/07/10 06:38:35;;;;;;;;;;;15.40;99.90;;;;;;5025328;28;19923;-70
2022/07/10 06:41:00;;;;;;;;;;;15.40;99.90;;;;;;5043622;28;20323;-70
2022/07/10 06:43:26;;;;;;;;;;;15.40;99.90;;;;;;5029325;28;20135;-70
2022/07/10 06:45:51;;;;;;;;;;;15.40;99.90;;;;;;5025706;28;20008;-70
2022/07/10 06:48:17;;;;;;;;;;;15.30;99.90;;;;;;5008597;28;19925;-70
2022/07/10 06:50:42;;;;;;;;;;;15.40;99.90;;;;;;5026361;28;19917;-71
2022/07/10 06:53:08;;;;;;;;;;;15.30;99.90;;;;;;5008040;28;20031;-70
2022/07/10 06:55:34;;;;;;;;;;;15.40;99.90;;;;;;5028110;28;19924;-70
2022/07/10 06:58:01;;;;;;;;;;;15.40;99.90;;;;;;5023185;28;19979;-69
2022/07/10 07:00:27;;;;;;;;;;;15.50;99.90;;;;;;5041872;28;19971;-70
2022/07/10 07:02:52;;;;;;;;;;;15.50;99.90;;;;;;5027207;28;19932;-71
2022/07/10 07:05:18;;;;;;;;;;;15.60;99.90;;;;;;4994582;28;20348;-71
2022/07/10 07:07:44;;;;;;;;;;;15.60;99.90;;;;;;5025092;28;19965;-71
2022/07/10 07:10:10;;;;;;;;;;;15.60;99.90;;;;;;5007986;28;19921;-70
2022/07/10 07:12:35;;;;;;;;;;;15.70;99.90;;;;;;5026395;28;19978;-71
2022/07/10 07:15:01;;;;;;;;;;;15.70;99.90;;;;;;5009334;28;19944;-70
2022/07/10 07:17:33;;;;;;;;;;;15.80;99.90;;;;;;5022861;28;20020;-70
2022/07/10 07:25:31;;;;;;;;;;;15.80;99.90;;;;;;5021390;28;19965;-70
2022/07/10 07:27:56;;;;;;;;;;;15.90;99.90;;;;;;5040741;28;19971;-71
2022/07/10 07:30:22;;;;;;;;;;;16.00;99.90;;;;;;5005765;28;19921;-71
2022/07/10 07:32:48;;;;;;;;;;;16.00;99.90;;;;;;5042476;28;19925;-70
2022/07/10 07:35:15;;;;;;;;;;;16.10;99.90;;;;;;5005473;28;19925;-70
2022/07/10 07:37:42;;;;;;;;;;;16.10;99.90;;;;;;5004776;28;20011;-70
2022/07/10 07:40:08;;;;;;;;;;;16.00;99.90;;;;;;5027118;28;20076;-70
2022/07/10 07:42:34;;;;;;;;;;;16.00;99.90;;;;;;5001739;28;20327;-70
2022/07/10 07:45:00;;;;;;;;;;;16.00;99.90;;;;;;5008265;28;20023;-70
2022/07/10 07:47:26;;;;;;;;;;;16.00;99.90;;;;;;5023641;28;20302;-70
2022/07/10 07:49:51;;;;;;;;;;;16.00;99.90;;;;;;5043251;28;20350;-70
2022/07/10 07:52:17;;;;;;;;;;;15.90;99.90;;;;;;5007463;28;20348;-71
2022/07/10 07:54:42;;;;;;;;;;;15.90;99.90;;;;;;5020861;28;20400;-70
2022/07/10 07:57:08;;;;;;;;;;;15.80;99.90;;;;;;5026220;28;20374;-70
2022/07/10 07:59:34;;;;;;;;;;;15.80;99.90;;;;;;5027232;28;20007;-70
2022/07/10 08:02:00;;;;;;;;;;;15.80;99.90;;;;;;5040003;28;19928;-70
2022/07/10 08:04:26;;;;;;;;;;;15.80;99.90;;;;;;5025949;28;19921;-70
2022/07/10 08:06:52;;;;;;;;;;;15.80;99.90;;;;;;5022765;28;20007;-70
2022/07/10 08:09:18;;;;;;;;;;;15.80;99.90;;;;;;5012065;28;20072;-70
2022/07/10 08:11:43;;;;;;;;;;;15.80;99.90;;;;;;5013129;28;20082;-70
2022/07/10 08:14:09;;;;;;;;;;;15.90;99.90;;;;;;5027424;28;19920;-70
2022/07/10 08:16:34;;;;;;;;;;;15.80;99.90;;;;;;5011635;28;20362;-70
2022/07/10 08:19:00;;;;;;;;;;;15.90;99.90;;;;;;5030753;28;19925;-70
2022/07/10 08:21:26;;;;;;;;;;;15.90;99.90;;;;;;5027756;28;20392;-70
2022/07/10 08:23:53;;;;;;;;;;;15.90;99.90;;;;;;5006383;28;20014;-70
2022/07/10 08:26:19;;;;;;;;;;;16.00;99.90;;;;;;5029369;28;19988;-70
2022/07/10 08:28:44;;;;;;;;;;;16.10;99.90;;;;;;5007568;28;19928;-70
2022/07/10 08:31:10;;;;;;;;;;;16.10;99.90;;;;;;5022586;28;19943;-70
2022/07/10 08:33:35;;;;;;;;;;;16.20;99.90;;;;;;5029986;28;19928;-70
2022/07/10 08:36:01;;;;;;;;;;;16.20;99.90;;;;;;5013091;28;20183;-70
2022/07/10 08:38:26;;;;;;;;;;;16.20;99.90;;;;;;5028888;28;19921;-70
2022/07/10 08:40:53;;;;;;;;;;;16.20;99.90;;;;;;5025165;28;20167;-70
2022/07/10 08:43:19;;;;;;;;;;;16.30;99.90;;;;;;5013184;28;19925;-70
2022/07/10 08:45:45;;;;;;;;;;;16.30;99.90;;;;;;5023139;28;20395;-70
2022/07/10 08:48:12;;;;;;;;;;;16.30;99.90;;;;;;5028581;28;19917;-70
2022/07/10 08:50:42;;;;;;;;;;;16.20;99.90;;;;;;5027360;28;19917;-70
2022/07/10 08:53:08;;;;;;;;;;;16.30;99.90;;;;;;5010702;28;20191;-70
2022/07/10 08:55:35;;;;;;;;;;;16.30;99.90;;;;;;4993227;28;19917;-70
2022/07/10 08:58:00;;;;;;;;;;;16.30;99.90;;;;;;5010990;28;19986;-70
2022/07/10 09:00:26;;;;;;;;;;;16.40;99.90;;;;;;5029531;28;20421;-70
2022/07/10 09:02:55;;;;;;;;;;;16.30;99.90;;;;;;4996721;28;20470;-70
2022/07/10 09:05:20;;;;;;;;;;;16.40;99.90;;;;;;5029646;28;19939;-70
2022/07/10 09:07:46;;;;;;;;;;;16.40;99.90;;;;;;5024053;28;19917;-70
2022/07/10 09:10:12;;;;;;;;;;;16.50;99.90;;;;;;5031760;28;20453;-70
2022/07/10 09:12:52;;;;;;;;;;;16.50;99.90;;;;;;5028082;28;19921;-70
2022/07/10 09:15:19;;;;;;;;;;;16.50;99.90;;;;;;5025418;28;20012;-70
2022/07/10 09:17:57;;;;;;;;;;;16.60;99.90;;;;;;5025802;28;19960;-70
2022/07/10 09:20:24;;;;;;;;;;;16.50;99.90;;;;;;5020525;28;19968;-70
2022/07/10 09:22:49;;;;;;;;;;;16.50;99.90;;;;;;5026675;28;19925;-70
2022/07/10 09:25:15;;;;;;;;;;;16.40;99.90;;;;;;5008660;28;20018;-70
2022/07/10 09:27:56;;;;;;;;;;;16.50;99.90;;;;;;5027376;28;19965;-70
2022/07/10 09:30:32;;;;;;;;;;;16.40;99.90;;;;;;5007276;28;20460;-70
2022/07/10 09:33:23;;;;;;;;;;;16.50;99.90;;;;;;5009566;28;20358;-70
2022/07/10 09:38:41;;;;;;;;;;;16.40;99.90;;;;;;5026129;28;19984;-73
2022/07/10 09:41:15;;;;;;;;;;;16.50;99.90;;;;;;5004637;28;19948;-70
2022/07/10 09:43:44;;;;;;;;;;;16.40;99.90;;;;;;5028695;28;20008;-70
2022/07/10 09:46:10;;;;;;;;;;;16.40;99.90;;;;;;5042184;28;19917;-72
2022/07/10 09:48:35;;;;;;;;;;;16.40;99.90;;;;;;5006580;28;19927;-72
2022/07/10 09:51:01;;;;;;;;;;;16.40;99.90;;;;;;5023518;28;20015;-72
2022/07/10 09:53:27;;;;;;;;;;;16.50;99.90;;;;;;5026326;28;19917;-73
2022/07/10 09:55:54;;;;;;;;;;;16.50;99.90;;;;;;5035648;28;20281;-73
2022/07/10 09:58:22;;;;;;;;;;;16.50;99.90;;;;;;5012131;28;19990;-72
2022/07/10 10:00:48;;;;;;;;;;;16.60;99.90;;;;;;5005501;28;19917;-72
2022/07/10 10:03:14;;;;;;;;;;;16.70;99.90;;;;;;5023234;28;19924;-72
2022/07/10 10:05:45;;;;;;;;;;;16.70;99.90;;;;;;5016380;28;19916;-72
2022/07/10 10:08:12;;;;;;;;;;;16.80;99.90;;;;;;5028045;28;19949;-72
2022/07/10 10:10:39;;;;;;;;;;;16.90;99.90;;;;;;5041424;28;19924;-72
2022/07/10 10:13:08;;;;;;;;;;;16.90;99.90;;;;;;5025174;28;19917;-73
2022/07/10 10:15:34;;;;;;;;;;;16.80;99.90;;;;;;5008636;28;20397;-72
2022/07/10 10:20:42;;;;;;;;;;;16.80;99.90;;;;;;5003849;28;20017;-74
2022/07/10 10:23:12;;;;;;;;;;;16.90;99.90;;;;;;4997622;28;19927;-74
2022/07/10 10:25:38;;;;;;;;;;;16.90;99.90;;;;;;5007225;28;20008;-74
2022/07/10 10:28:09;;;;;;;;;;;17.00;99.90;;;;;;5003828;28;20027;-74
2022/07/10 10:30:39;;;;;;;;;;;17.10;99.90;;;;;;4995911;28;19922;-74
2022/07/10 10:33:24;;;;;;;;;;;17.20;99.90;;;;;;4998999;28;20334;-77
2022/07/10 10:35:50;;;;;;;;;;;17.20;99.90;;;;;;4995794;28;19924;-74
2022/07/10 10:38:15;;;;;;;;;;;17.30;99.90;;;;;;5007229;28;19917;-74
2022/07/10 10:40:41;;;;;;;;;;;17.40;99.90;;;;;;5009861;28;19976;-74
2022/07/10 10:43:19;;;;;;;;;;;17.40;99.90;;;;;;5005846;28;20315;-74
2022/07/10 10:45:46;;;;;;;;;;;17.30;99.90;;;;;;5003629;28;19939;-74
2022/07/10 10:48:16;;;;;;;;;;;17.30;99.90;;;;;;4996228;28;20358;-74
2022/07/10 10:50:42;;;;;;;;;;;17.20;99.90;;;;;;5002238;28;19917;-74
2022/07/10 10:53:14;;;;;;;;;;;17.30;99.90;;;;;;5005431;28;19968;-74
2022/07/10 10:55:41;;;;;;;;;;;17.20;99.90;;;;;;5001999;28;19917;-74
2022/07/10 10:58:17;;;;;;;;;;;17.20;99.90;;;;;;4998354;28;19921;-75
2022/07/10 11:00:43;;;;;;;;;;;17.20;99.90;;;;;;5019351;28;19968;-74
2022/07/10 11:03:13;;;;;;;;;;;17.20;99.90;;;;;;5003443;28;20278;-74
2022/07/10 11:05:41;;;;;;;;;;;17.10;99.90;;;;;;5003592;28;20337;-74
2022/07/10 11:08:07;;;;;;;;;;;17.10;99.90;;;;;;5001347;28;19917;-74
2022/07/10 11:10:37;;;;;;;;;;;17.10;99.90;;;;;;4989143;28;19927;-74
2022/07/10 11:13:07;;;;;;;;;;;17.10;99.90;;;;;;5005940;28;20282;-74
2022/07/10 11:15:34;;;;;;;;;;;17.10;99.90;;;;;;4999923;28;19989;-74
2022/07/10 11:18:05;;;;;;;;;;;17.10;99.90;;;;;;4986653;28;19917;-75
2022/07/10 11:20:34;;;;;;;;;;;17.10;99.90;;;;;;5005873;28;19937;-74
2022/07/10 11:23:02;;;;;;;;;;;17.00;99.90;;;;;;5004648;28;19984;-74
2022/07/10 11:25:41;;;;;;;;;;;17.10;99.90;;;;;;5006585;28;19998;-74
2022/07/10 11:28:13;;;;;;;;;;;17.10;99.90;;;;;;4995971;28;19917;-74
2022/07/10 11:30:48;;;;;;;;;;;17.10;99.90;;;;;;5000459;28;19965;-74
2022/07/10 11:33:14;;;;;;;;;;;17.10;99.90;;;;;;4999636;28;20444;-74
2022/07/10 11:35:42;;;;;;;;;;;17.10;99.90;;;;;;4978887;28;19917;-75
2022/07/10 11:38:07;;;;;;;;;;;17.20;99.90;;;;;;5003521;28;19917;-74
2022/07/10 11:40:37;;;;;;;;;;;17.10;99.90;;;;;;5007460;28;20021;-75
2022/07/10 11:43:05;;;;;;;;;;;17.20;99.90;;;;;;5004805;28;20382;-75
2022/07/10 11:45:33;;;;;;;;;;;17.20;99.90;;;;;;5012228;28;19933;-75
2022/07/10 11:47:59;;;;;;;;;;;17.30;99.90;;;;;;5005083;28;19928;-75
2022/07/10 11:50:25;;;;;;;;;;;17.30;99.90;;;;;;5005478;28;20000;-74
2022/07/10 11:52:51;;;;;;;;;;;17.30;99.90;;;;;;4990094;28;19925;-74
2022/07/10 11:55:17;;;;;;;;;;;17.30;99.90;;;;;;4994424;28;19917;-72
2022/07/10 11:57:48;;;;;;;;;;;17.30;99.90;;;;;;5001781;28;20267;-72
2022/07/10 12:00:24;;;;;;;;;;;17.40;99.90;;;;;;4988255;28;19921;-72
2022/07/10 12:02:50;;;;;;;;;;;17.40;99.90;;;;;;4995994;28;19925;-72
2022/07/10 12:05:35;;;;;;;;;;;17.40;99.90;;;;;;4982444;28;20274;-72
2022/07/10 12:08:01;;;;;;;;;;;17.40;99.90;;;;;;4993355;28;20338;-72
2022/07/10 12:10:27;;;;;;;;;;;17.40;99.90;;;;;;5000882;28;19993;-74
2022/07/10 12:12:52;;;;;;;;;;;17.30;99.90;;;;;;5001995;28;19988;-75
2022/07/10 12:15:31;;;;;;;;;;;17.30;99.90;;;;;;5006553;28;19940;-74
2022/07/10 12:17:57;;;;;;;;;;;17.30;99.90;;;;;;5009633;28;20323;-74
2022/07/10 12:20:22;;;;;;;;;;;17.30;99.90;;;;;;5004203;28;19964;-72
2022/07/10 12:22:48;;;;;;;;;;;17.40;99.90;;;;;;5016175;28;19940;-72
2022/07/10 12:25:13;;;;;;;;;;;17.40;99.90;;;;;;5004647;28;19931;-72
2022/07/10 12:27:40;;;;;;;;;;;17.40;99.90;;;;;;5009087;28;19932;-71
2022/07/10 12:30:06;;;;;;;;;;;17.50;99.90;;;;;;4983711;28;19992;-72
2022/07/10 12:32:31;;;;;;;;;;;17.60;99.90;;;;;;5007858;28;20016;-72
2022/07/10 12:34:58;;;;;;;;;;;17.70;99.90;;;;;;5023267;28;19997;-72
2022/07/10 12:37:23;;;;;;;;;;;17.80;99.90;;;;;;5008323;28;19984;-72
2022/07/10 12:39:52;;;;;;;;;;;17.80;99.90;;;;;;4994504;28;19943;-72
2022/07/10 12:42:27;;;;;;;;;;;17.80;99.90;;;;;;4998861;28;19922;-72
2022/07/10 12:44:53;;;;;;;;;;;17.90;99.90;;;;;;4994042;28;19948;-72
2022/07/10 12:47:20;;;;;;;;;;;18.00;99.90;;;;;;5015036;28;19917;-72
2022/07/10 12:49:48;;;;;;;;;;;18.10;99.90;;;;;;5003786;28;20311;-72
2022/07/10 12:52:28;;;;;;;;;;;18.20;99.90;;;;;;4999517;28;19922;-72
2022/07/10 12:55:09;;;;;;;;;;;18.20;99.90;;;;;;4998609;28;19921;-72
2022/07/10 12:57:53;;;;;;;;;;;18.30;99.90;;;;;;4993617;28;19936;-72
2022/07/10 13:00:20;;;;;;;;;;;18.40;99.90;;;;;;4990175;28;19995;-72
2022/07/10 13:02:50;;;;;;;;;;;18.40;99.90;;;;;;5003590;28;20347;-72
2022/07/10 13:05:32;;;;;;;;;;;18.40;99.90;;;;;;5002419;28;20067;-72
2022/07/10 13:08:28;;;;;;;;;;;18.40;99.90;;;;;;4997857;28;20323;-72
2022/07/10 13:10:54;;;;;;;;;;;18.40;99.90;;;;;;4999710;28;19917;-74
2022/07/10 13:13:20;;;;;;;;;;;18.40;99.90;;;;;;4977742;28;19917;-74
2022/07/10 13:15:49;;;;;;;;;;;18.50;99.90;;;;;;4996323;28;20337;-74
2022/07/10 13:18:17;;;;;;;;;;;18.40;99.90;;;;;;4999256;28;20266;-75
2022/07/10 13:20:43;;;;;;;;;;;18.50;99.90;;;;;;5005302;28;19964;-74
2022/07/10 13:23:09;;;;;;;;;;;18.60;99.90;;;;;;5017468;28;20062;-74
2022/07/10 13:25:34;;;;;;;;;;;18.60;99.90;;;;;;5008023;28;20333;-74
2022/07/10 13:28:00;;;;;;;;;;;18.70;99.90;;;;;;5001579;28;19917;-74
2022/07/10 13:30:26;;;;;;;;;;;18.80;99.90;;;;;;5003820;28;19976;-75
2022/07/10 13:32:51;;;;;;;;;;;18.90;99.90;;;;;;5005690;28;19918;-75
2022/07/10 13:35:17;;;;;;;;;;;18.90;99.90;;;;;;4997758;28;19964;-75
2022/07/10 13:37:42;;;;;;;;;;;19.00;99.90;;;;;;4997356;28;19918;-75
2022/07/10 13:40:08;;;;;;;;;;;19.00;99.90;;;;;;5003392;28;20175;-75
2022/07/10 13:42:33;;;;;;;;;;;19.10;99.90;;;;;;5006551;28;19921;-75
2022/07/10 13:44:59;;;;;;;;;;;19.10;99.90;;;;;;5001098;28;20310;-75
2022/07/10 13:47:24;;;;;;;;;;;19.10;99.90;;;;;;5002750;28;19917;-72
2022/07/10 13:49:50;;;;;;;;;;;19.30;99.90;;;;;;5001258;28;20516;-72
2022/07/10 13:52:16;;;;;;;;;;;19.30;99.90;;;;;;4998764;28;19917;-72
2022/07/10 13:54:41;;;;;;;;;;;19.40;99.90;;;;;;5007343;28;19928;-72
2022/07/10 13:57:07;;;;;;;;;;;19.40;99.90;;;;;;5003230;28;19940;-72
2022/07/10 13:59:32;;;;;;;;;;;19.50;99.90;;;;;;5003499;28;19965;-72
2022/07/10 14:01:58;;;;;;;;;;;19.50;99.90;;;;;;5000930;28;20424;-72
2022/07/10 14:04:23;;;;;;;;;;;19.60;99.90;;;;;;5022531;28;20011;-72
2022/07/10 14:06:49;;;;;;;;;;;19.50;99.90;;;;;;5001244;28;19939;-72
2022/07/10 14:09:14;;;;;;;;;;;19.50;99.90;;;;;;5012929;28;20050;-72
2022/07/10 14:11:40;;;;;;;;;;;19.60;99.90;;;;;;5009586;28;19939;-72
2022/07/10 14:14:06;;;;;;;;;;;19.50;99.90;;;;;;5006517;28;20250;-72
2022/07/10 14:16:31;;;;;;;;;;;19.60;99.90;;;;;;4989527;28;19929;-72
2022/07/10 14:18:57;;;;;;;;;;;19.70;99.90;;;;;;5011836;28;20008;-72
2022/07/10 14:21:25;;;;;;;;;;;19.70;99.90;;;;;;5002740;28;20275;-72
2022/07/10 14:23:51;;;;;;;;;;;19.80;99.90;;;;;;4989138;28;19929;-72
2022/07/10 14:26:16;;;;;;;;;;;19.90;99.90;;;;;;5000123;28;20313;-72
2022/07/10 14:28:42;;;;;;;;;;;19.80;99.90;;;;;;5001333;28;20008;-72
2022/07/10 14:31:08;;;;;;;;;;;19.80;99.90;;;;;;4994359;28;19918;-72